sensor_id;sensor_type;location;lat;lon;timestamp;P1;durP1;ratioP1;P2;durP2;ratioP2
38435;SDS011;24220;48.168;14.024;2023-06-22T00:01:33;4.72;;;2.65;;
38435;SDS011;24220;48.168;14.024;2023-06-22T00:04:00;4.75;;;2.70;;
38435;SDS011;24220;48.168;14.024;2023-06-22T00:06:27;5.07;;;2.70;;
38435;SDS011;24220;48.168;14.024;2023-06-22T00:08:55;5.88;;;3.17;;
38435;SDS011;24220;48.168;14.024;2023-06-22T00:11:22;7.15;;;3.20;;
38435;SDS011;24220;48.168;14.024;2023-06-22T00:13:52;5.53;;;2.85;;
38435;SDS011;24220;48.168;14.024;2023-06-22T00:16:19;6.72;;;3.40;;
38435;SDS011;24220;48.168;14.024;2023-06-22T00:18:47;5.50;;;2.92;;
38435;SDS011;24220;48.168;14.024;2023-06-22T00:21:15;5.93;;;3.20;;
38435;SDS011;24220;48.168;14.024;2023-06-22T00:23:47;7.43;;;3.15;;
38435;SDS011;24220;48.168;14.024;2023-06-22T00:26:14;6.30;;;3.17;;
38435;SDS011;24220;48.168;14.024;2023-06-22T00:28:41;5.93;;;3.42;;
38435;SDS011;24220;48.168;14.024;2023-06-22T00:31:11;8.07;;;3.47;;
38435;SDS011;24220;48.168;14.024;2023-06-22T00:33:39;6.70;;;3.63;;
38435;SDS011;24220;48.168;14.024;2023-06-22T00:36:08;5.93;;;3.22;;
38435;SDS011;24220;48.168;14.024;2023-06-22T00:38:39;6.30;;;3.53;;
38435;SDS011;24220;48.168;14.024;2023-06-22T00:41:07;5.28;;;3.70;;
38435;SDS011;24220;48.168;14.024;2023-06-22T00:43:34;7.55;;;3.50;;
38435;SDS011;24220;48.168;14.024;2023-06-22T00:46:02;7.47;;;3.60;;
38435;SDS011;24220;48.168;14.024;2023-06-22T00:48:29;8.30;;;3.63;;
38435;SDS011;24220;48.168;14.024;2023-06-22T00:50:57;8.00;;;3.70;;
38435;SDS011;24220;48.168;14.024;2023-06-22T00:53:26;5.22;;;2.78;;
38435;SDS011;24220;48.168;14.024;2023-06-22T00:55:54;4.22;;;3.03;;
38435;SDS011;24220;48.168;14.024;2023-06-22T00:58:26;5.65;;;3.28;;
38435;SDS011;24220;48.168;14.024;2023-06-22T01:00:53;5.20;;;3.10;;
38435;SDS011;24220;48.168;14.024;2023-06-22T01:03:24;5.90;;;3.13;;
38435;SDS011;24220;48.168;14.024;2023-06-22T01:05:51;6.30;;;3.80;;
38435;SDS011;24220;48.168;14.024;2023-06-22T01:08:44;7.15;;;3.97;;
38435;SDS011;24220;48.168;14.024;2023-06-22T01:11:24;6.25;;;3.85;;
38435;SDS011;24220;48.168;14.024;2023-06-22T01:16:31;6.15;;;3.67;;
38435;SDS011;24220;48.168;14.024;2023-06-22T01:19:03;5.80;;;3.30;;
38435;SDS011;24220;48.168;14.024;2023-06-22T01:21:47;8.07;;;3.60;;
38435;SDS011;24220;48.168;14.024;2023-06-22T01:29:52;5.13;;;3.15;;
38435;SDS011;24220;48.168;14.024;2023-06-22T01:32:31;7.30;;;3.85;;
38435;SDS011;24220;48.168;14.024;2023-06-22T01:35:01;9.20;;;3.90;;
38435;SDS011;24220;48.168;14.024;2023-06-22T01:37:30;6.93;;;3.90;;
38435;SDS011;24220;48.168;14.024;2023-06-22T01:40:00;4.75;;;3.22;;
38435;SDS011;24220;48.168;14.024;2023-06-22T01:42:28;8.52;;;3.50;;
38435;SDS011;24220;48.168;14.024;2023-06-22T01:44:55;7.03;;;3.75;;
38435;SDS011;24220;48.168;14.024;2023-06-22T01:47:24;5.28;;;3.20;;
38435;SDS011;24220;48.168;14.024;2023-06-22T01:49:55;6.45;;;3.55;;
38435;SDS011;24220;48.168;14.024;2023-06-22T01:52:23;5.25;;;3.30;;
38435;SDS011;24220;48.168;14.024;2023-06-22T01:54:50;5.55;;;3.35;;
38435;SDS011;24220;48.168;14.024;2023-06-22T01:57:20;6.00;;;3.45;;
38435;SDS011;24220;48.168;14.024;2023-06-22T02:00:01;6.05;;;3.45;;
38435;SDS011;24220;48.168;14.024;2023-06-22T02:02:32;5.70;;;3.33;;
38435;SDS011;24220;48.168;14.024;2023-06-22T02:05:08;6.78;;;3.63;;
38435;SDS011;24220;48.168;14.024;2023-06-22T02:07:49;8.85;;;4.35;;
38435;SDS011;24220;48.168;14.024;2023-06-22T02:10:27;5.18;;;3.67;;
38435;SDS011;24220;48.168;14.024;2023-06-22T02:15:29;5.35;;;3.17;;
38435;SDS011;24220;48.168;14.024;2023-06-22T02:17:59;4.60;;;3.17;;
38435;SDS011;24220;48.168;14.024;2023-06-22T02:20:29;6.13;;;3.38;;
38435;SDS011;24220;48.168;14.024;2023-06-22T02:22:59;6.97;;;3.70;;
38435;SDS011;24220;48.168;14.024;2023-06-22T02:25:26;6.15;;;3.22;;
38435;SDS011;24220;48.168;14.024;2023-06-22T02:27:56;5.95;;;3.47;;
38435;SDS011;24220;48.168;14.024;2023-06-22T02:30:23;5.47;;;3.80;;
38435;SDS011;24220;48.168;14.024;2023-06-22T02:32:51;6.78;;;3.83;;
38435;SDS011;24220;48.168;14.024;2023-06-22T02:35:28;5.85;;;3.40;;
38435;SDS011;24220;48.168;14.024;2023-06-22T02:38:02;7.45;;;4.30;;
38435;SDS011;24220;48.168;14.024;2023-06-22T02:40:33;6.82;;;4.05;;
38435;SDS011;24220;48.168;14.024;2023-06-22T02:43:01;7.65;;;4.55;;
38435;SDS011;24220;48.168;14.024;2023-06-22T02:45:29;9.32;;;3.90;;
38435;SDS011;24220;48.168;14.024;2023-06-22T02:47:57;5.88;;;3.85;;
38435;SDS011;24220;48.168;14.024;2023-06-22T02:50:27;6.80;;;3.58;;
38435;SDS011;24220;48.168;14.024;2023-06-22T02:52:59;6.53;;;3.90;;
38435;SDS011;24220;48.168;14.024;2023-06-22T02:55:29;7.15;;;3.75;;
38435;SDS011;24220;48.168;14.024;2023-06-22T02:57:58;5.93;;;3.50;;
38435;SDS011;24220;48.168;14.024;2023-06-22T03:00:26;6.63;;;4.00;;
38435;SDS011;24220;48.168;14.024;2023-06-22T03:05:25;6.07;;;3.97;;
38435;SDS011;24220;48.168;14.024;2023-06-22T03:07:55;7.53;;;4.13;;
38435;SDS011;24220;48.168;14.024;2023-06-22T03:10:24;6.75;;;4.07;;
38435;SDS011;24220;48.168;14.024;2023-06-22T03:12:56;7.53;;;4.30;;
38435;SDS011;24220;48.168;14.024;2023-06-22T03:15:26;5.32;;;3.88;;
38435;SDS011;24220;48.168;14.024;2023-06-22T03:17:56;6.88;;;3.90;;
38435;SDS011;24220;48.168;14.024;2023-06-22T03:20:28;4.95;;;3.60;;
38435;SDS011;24220;48.168;14.024;2023-06-22T03:23:00;7.32;;;3.65;;
38435;SDS011;24220;48.168;14.024;2023-06-22T03:25:27;7.05;;;3.67;;
38435;SDS011;24220;48.168;14.024;2023-06-22T03:27:54;7.90;;;3.85;;
38435;SDS011;24220;48.168;14.024;2023-06-22T03:30:22;5.95;;;3.85;;
38435;SDS011;24220;48.168;14.024;2023-06-22T03:32:49;8.05;;;4.22;;
38435;SDS011;24220;48.168;14.024;2023-06-22T03:35:16;7.53;;;4.18;;
38435;SDS011;24220;48.168;14.024;2023-06-22T03:37:48;7.32;;;4.18;;
38435;SDS011;24220;48.168;14.024;2023-06-22T03:40:18;6.88;;;4.13;;
38435;SDS011;24220;48.168;14.024;2023-06-22T03:42:46;6.72;;;3.90;;
38435;SDS011;24220;48.168;14.024;2023-06-22T03:45:16;5.28;;;3.47;;
38435;SDS011;24220;48.168;14.024;2023-06-22T03:47:45;6.10;;;4.05;;
38435;SDS011;24220;48.168;14.024;2023-06-22T03:50:13;5.47;;;3.63;;
38435;SDS011;24220;48.168;14.024;2023-06-22T03:52:44;5.82;;;3.92;;
38435;SDS011;24220;48.168;14.024;2023-06-22T03:55:11;6.90;;;4.18;;
38435;SDS011;24220;48.168;14.024;2023-06-22T03:57:38;7.13;;;3.97;;
38435;SDS011;24220;48.168;14.024;2023-06-22T04:00:06;8.07;;;4.43;;
38435;SDS011;24220;48.168;14.024;2023-06-22T04:02:34;8.98;;;4.03;;
38435;SDS011;24220;48.168;14.024;2023-06-22T04:05:02;7.65;;;4.40;;
38435;SDS011;24220;48.168;14.024;2023-06-22T04:07:33;6.18;;;3.90;;
38435;SDS011;24220;48.168;14.024;2023-06-22T04:10:04;6.22;;;3.88;;
38435;SDS011;24220;48.168;14.024;2023-06-22T04:12:32;8.68;;;4.32;;
38435;SDS011;24220;48.168;14.024;2023-06-22T04:14:59;10.32;;;4.75;;
38435;SDS011;24220;48.168;14.024;2023-06-22T04:17:27;10.38;;;4.60;;
38435;SDS011;24220;48.168;14.024;2023-06-22T04:19:54;9.90;;;4.82;;
38435;SDS011;24220;48.168;14.024;2023-06-22T04:22:21;8.15;;;4.35;;
38435;SDS011;24220;48.168;14.024;2023-06-22T04:24:48;6.93;;;4.65;;
38435;SDS011;24220;48.168;14.024;2023-06-22T04:27:18;5.72;;;3.70;;
38435;SDS011;24220;48.168;14.024;2023-06-22T04:29:46;10.27;;;4.22;;
38435;SDS011;24220;48.168;14.024;2023-06-22T04:32:18;8.27;;;4.22;;
38435;SDS011;24220;48.168;14.024;2023-06-22T04:34:47;6.45;;;4.45;;
38435;SDS011;24220;48.168;14.024;2023-06-22T04:37:15;10.65;;;4.82;;
38435;SDS011;24220;48.168;14.024;2023-06-22T04:39:42;9.13;;;4.97;;
38435;SDS011;24220;48.168;14.024;2023-06-22T04:42:11;8.27;;;3.95;;
38435;SDS011;24220;48.168;14.024;2023-06-22T04:44:39;9.25;;;4.22;;
38435;SDS011;24220;48.168;14.024;2023-06-22T04:47:08;9.70;;;4.10;;
38435;SDS011;24220;48.168;14.024;2023-06-22T04:49:38;7.65;;;4.28;;
38435;SDS011;24220;48.168;14.024;2023-06-22T04:52:10;11.85;;;4.75;;
38435;SDS011;24220;48.168;14.024;2023-06-22T04:54:39;8.05;;;4.55;;
38435;SDS011;24220;48.168;14.024;2023-06-22T04:57:14;8.00;;;4.22;;
38435;SDS011;24220;48.168;14.024;2023-06-22T04:59:42;8.75;;;3.80;;
38435;SDS011;24220;48.168;14.024;2023-06-22T05:02:10;8.57;;;4.88;;
38435;SDS011;24220;48.168;14.024;2023-06-22T05:04:40;7.35;;;4.15;;
38435;SDS011;24220;48.168;14.024;2023-06-22T05:07:07;12.50;;;4.22;;
38435;SDS011;24220;48.168;14.024;2023-06-22T05:09:35;8.57;;;4.15;;
38435;SDS011;24220;48.168;14.024;2023-06-22T05:12:03;8.68;;;4.25;;
38435;SDS011;24220;48.168;14.024;2023-06-22T05:14:34;12.27;;;4.93;;
38435;SDS011;24220;48.168;14.024;2023-06-22T05:17:02;8.60;;;5.18;;
38435;SDS011;24220;48.168;14.024;2023-06-22T05:19:31;13.90;;;5.57;;
38435;SDS011;24220;48.168;14.024;2023-06-22T05:22:01;8.55;;;4.22;;
38435;SDS011;24220;48.168;14.024;2023-06-22T05:24:28;10.65;;;4.50;;
38435;SDS011;24220;48.168;14.024;2023-06-22T05:26:56;9.60;;;4.88;;
38435;SDS011;24220;48.168;14.024;2023-06-22T05:29:26;9.50;;;4.10;;
38435;SDS011;24220;48.168;14.024;2023-06-22T05:31:53;10.05;;;4.90;;
38435;SDS011;24220;48.168;14.024;2023-06-22T05:34:20;9.65;;;4.72;;
38435;SDS011;24220;48.168;14.024;2023-06-22T05:36:48;9.25;;;4.57;;
38435;SDS011;24220;48.168;14.024;2023-06-22T05:39:15;7.40;;;5.03;;
38435;SDS011;24220;48.168;14.024;2023-06-22T05:41:44;7.38;;;4.82;;
38435;SDS011;24220;48.168;14.024;2023-06-22T05:44:12;9.20;;;5.32;;
38435;SDS011;24220;48.168;14.024;2023-06-22T05:46:42;7.15;;;5.10;;
38435;SDS011;24220;48.168;14.024;2023-06-22T05:49:15;7.13;;;4.90;;
38435;SDS011;24220;48.168;14.024;2023-06-22T05:51:43;12.30;;;4.95;;
38435;SDS011;24220;48.168;14.024;2023-06-22T05:54:10;11.65;;;5.32;;
38435;SDS011;24220;48.168;14.024;2023-06-22T05:56:42;9.52;;;5.93;;
38435;SDS011;24220;48.168;14.024;2023-06-22T05:59:09;8.82;;;4.78;;
38435;SDS011;24220;48.168;14.024;2023-06-22T06:01:37;8.43;;;4.85;;
38435;SDS011;24220;48.168;14.024;2023-06-22T06:04:07;9.85;;;4.68;;
38435;SDS011;24220;48.168;14.024;2023-06-22T06:06:37;9.60;;;5.20;;
38435;SDS011;24220;48.168;14.024;2023-06-22T06:09:04;8.65;;;4.75;;
38435;SDS011;24220;48.168;14.024;2023-06-22T06:11:32;9.52;;;4.80;;
38435;SDS011;24220;48.168;14.024;2023-06-22T06:14:02;10.07;;;5.25;;
38435;SDS011;24220;48.168;14.024;2023-06-22T06:16:29;9.68;;;4.60;;
38435;SDS011;24220;48.168;14.024;2023-06-22T06:19:01;9.43;;;4.93;;
38435;SDS011;24220;48.168;14.024;2023-06-22T06:21:29;9.30;;;4.63;;
38435;SDS011;24220;48.168;14.024;2023-06-22T06:23:59;6.97;;;4.30;;
38435;SDS011;24220;48.168;14.024;2023-06-22T06:26:26;11.25;;;4.95;;
38435;SDS011;24220;48.168;14.024;2023-06-22T06:29:01;9.60;;;4.50;;
38435;SDS011;24220;48.168;14.024;2023-06-22T06:31:31;8.52;;;4.80;;
38435;SDS011;24220;48.168;14.024;2023-06-22T06:33:58;8.60;;;4.22;;
38435;SDS011;24220;48.168;14.024;2023-06-22T06:36:26;8.60;;;4.57;;
38435;SDS011;24220;48.168;14.024;2023-06-22T06:38:55;10.45;;;5.30;;
38435;SDS011;24220;48.168;14.024;2023-06-22T06:41:23;9.02;;;4.50;;
38435;SDS011;24220;48.168;14.024;2023-06-22T06:43:53;8.45;;;4.30;;
38435;SDS011;24220;48.168;14.024;2023-06-22T06:46:20;8.00;;;4.18;;
38435;SDS011;24220;48.168;14.024;2023-06-22T06:48:50;6.30;;;4.40;;
38435;SDS011;24220;48.168;14.024;2023-06-22T06:51:17;9.55;;;4.80;;
38435;SDS011;24220;48.168;14.024;2023-06-22T06:53:47;7.80;;;4.65;;
38435;SDS011;24220;48.168;14.024;2023-06-22T06:56:14;7.78;;;4.70;;
38435;SDS011;24220;48.168;14.024;2023-06-22T06:58:42;8.60;;;4.70;;
38435;SDS011;24220;48.168;14.024;2023-06-22T07:01:12;10.80;;;4.78;;
38435;SDS011;24220;48.168;14.024;2023-06-22T07:03:40;7.95;;;4.40;;
38435;SDS011;24220;48.168;14.024;2023-06-22T07:06:08;8.68;;;4.20;;
38435;SDS011;24220;48.168;14.024;2023-06-22T07:08:35;8.77;;;4.38;;
38435;SDS011;24220;48.168;14.024;2023-06-22T07:11:10;7.10;;;4.22;;
38435;SDS011;24220;48.168;14.024;2023-06-22T07:13:37;7.70;;;4.07;;
38435;SDS011;24220;48.168;14.024;2023-06-22T07:16:12;8.95;;;4.43;;
38435;SDS011;24220;48.168;14.024;2023-06-22T07:18:42;6.65;;;3.92;;
38435;SDS011;24220;48.168;14.024;2023-06-22T07:21:11;9.55;;;4.50;;
38435;SDS011;24220;48.168;14.024;2023-06-22T07:23:41;9.13;;;4.28;;
38435;SDS011;24220;48.168;14.024;2023-06-22T07:26:09;6.60;;;4.00;;
38435;SDS011;24220;48.168;14.024;2023-06-22T07:28:36;7.18;;;4.35;;
38435;SDS011;24220;48.168;14.024;2023-06-22T07:31:04;7.65;;;4.35;;
38435;SDS011;24220;48.168;14.024;2023-06-22T07:33:34;8.63;;;4.15;;
38435;SDS011;24220;48.168;14.024;2023-06-22T07:36:06;6.05;;;3.90;;
38435;SDS011;24220;48.168;14.024;2023-06-22T07:38:34;7.45;;;4.05;;
38435;SDS011;24220;48.168;14.024;2023-06-22T07:41:04;5.47;;;3.70;;
38435;SDS011;24220;48.168;14.024;2023-06-22T07:43:32;7.93;;;4.28;;
38435;SDS011;24220;48.168;14.024;2023-06-22T07:46:01;9.93;;;3.97;;
38435;SDS011;24220;48.168;14.024;2023-06-22T07:48:28;6.45;;;4.00;;
38435;SDS011;24220;48.168;14.024;2023-06-22T07:50:59;9.97;;;4.20;;
38435;SDS011;24220;48.168;14.024;2023-06-22T07:53:27;5.93;;;4.25;;
38435;SDS011;24220;48.168;14.024;2023-06-22T07:55:55;7.00;;;3.60;;
38435;SDS011;24220;48.168;14.024;2023-06-22T07:58:22;7.20;;;4.35;;
38435;SDS011;24220;48.168;14.024;2023-06-22T08:00:50;7.70;;;3.60;;
38435;SDS011;24220;48.168;14.024;2023-06-22T08:03:17;5.55;;;3.83;;
38435;SDS011;24220;48.168;14.024;2023-06-22T08:05:44;8.32;;;3.90;;
38435;SDS011;24220;48.168;14.024;2023-06-22T08:08:12;5.22;;;3.65;;
38435;SDS011;24220;48.168;14.024;2023-06-22T08:10:41;5.40;;;3.67;;
38435;SDS011;24220;48.168;14.024;2023-06-22T08:13:11;8.50;;;3.63;;
38435;SDS011;24220;48.168;14.024;2023-06-22T08:15:38;6.60;;;4.15;;
38435;SDS011;24220;48.168;14.024;2023-06-22T08:18:06;6.20;;;3.63;;
38435;SDS011;24220;48.168;14.024;2023-06-22T08:20:38;7.93;;;3.80;;
38435;SDS011;24220;48.168;14.024;2023-06-22T08:23:05;7.45;;;3.78;;
38435;SDS011;24220;48.168;14.024;2023-06-22T08:25:33;9.20;;;4.07;;
38435;SDS011;24220;48.168;14.024;2023-06-22T08:28:04;9.90;;;4.20;;
38435;SDS011;24220;48.168;14.024;2023-06-22T08:30:34;5.85;;;3.08;;
38435;SDS011;24220;48.168;14.024;2023-06-22T08:33:06;6.53;;;3.80;;
38435;SDS011;24220;48.168;14.024;2023-06-22T08:35:33;7.35;;;3.65;;
38435;SDS011;24220;48.168;14.024;2023-06-22T08:38:01;7.75;;;3.92;;
38435;SDS011;24220;48.168;14.024;2023-06-22T08:40:28;7.72;;;3.58;;
38435;SDS011;24220;48.168;14.024;2023-06-22T08:42:56;6.65;;;3.70;;
38435;SDS011;24220;48.168;14.024;2023-06-22T08:45:23;4.07;;;3.03;;
38435;SDS011;24220;48.168;14.024;2023-06-22T08:47:52;5.93;;;3.40;;
38435;SDS011;24220;48.168;14.024;2023-06-22T08:50:20;5.32;;;3.70;;
38435;SDS011;24220;48.168;14.024;2023-06-22T08:52:47;8.35;;;4.05;;
38435;SDS011;24220;48.168;14.024;2023-06-22T08:55:15;7.72;;;3.92;;
38435;SDS011;24220;48.168;14.024;2023-06-22T08:57:42;5.60;;;3.53;;
38435;SDS011;24220;48.168;14.024;2023-06-22T09:00:10;7.80;;;4.10;;
38435;SDS011;24220;48.168;14.024;2023-06-22T09:02:44;6.53;;;4.03;;
38435;SDS011;24220;48.168;14.024;2023-06-22T09:05:12;5.63;;;4.22;;
38435;SDS011;24220;48.168;14.024;2023-06-22T09:07:40;9.15;;;4.00;;
38435;SDS011;24220;48.168;14.024;2023-06-22T09:10:10;11.33;;;3.90;;
38435;SDS011;24220;48.168;14.024;2023-06-22T09:12:38;6.78;;;3.67;;
38435;SDS011;24220;48.168;14.024;2023-06-22T09:15:06;7.28;;;3.80;;
38435;SDS011;24220;48.168;14.024;2023-06-22T09:17:43;5.72;;;3.47;;
38435;SDS011;24220;48.168;14.024;2023-06-22T09:20:11;7.43;;;3.72;;
38435;SDS011;24220;48.168;14.024;2023-06-22T09:22:39;8.93;;;3.85;;
38435;SDS011;24220;48.168;14.024;2023-06-22T09:25:11;7.10;;;3.60;;
38435;SDS011;24220;48.168;14.024;2023-06-22T09:27:39;7.55;;;3.45;;
38435;SDS011;24220;48.168;14.024;2023-06-22T09:30:09;12.73;;;3.70;;
38435;SDS011;24220;48.168;14.024;2023-06-22T09:32:41;7.15;;;3.95;;
38435;SDS011;24220;48.168;14.024;2023-06-22T09:35:09;7.47;;;3.38;;
38435;SDS011;24220;48.168;14.024;2023-06-22T09:37:40;7.53;;;3.60;;
38435;SDS011;24220;48.168;14.024;2023-06-22T09:40:07;7.18;;;3.83;;
38435;SDS011;24220;48.168;14.024;2023-06-22T09:42:37;9.00;;;3.50;;
38435;SDS011;24220;48.168;14.024;2023-06-22T09:45:05;5.70;;;3.33;;
38435;SDS011;24220;48.168;14.024;2023-06-22T09:47:33;7.03;;;3.60;;
38435;SDS011;24220;48.168;14.024;2023-06-22T09:50:00;5.35;;;3.33;;
38435;SDS011;24220;48.168;14.024;2023-06-22T09:52:30;4.07;;;3.38;;
38435;SDS011;24220;48.168;14.024;2023-06-22T09:55:13;5.53;;;3.40;;
38435;SDS011;24220;48.168;14.024;2023-06-22T09:57:43;6.33;;;3.30;;
38435;SDS011;24220;48.168;14.024;2023-06-22T10:00:13;8.95;;;3.45;;
38435;SDS011;24220;48.168;14.024;2023-06-22T10:02:44;5.93;;;3.25;;
38435;SDS011;24220;48.168;14.024;2023-06-22T10:05:14;8.82;;;3.50;;
38435;SDS011;24220;48.168;14.024;2023-06-22T10:07:44;9.32;;;3.70;;
38435;SDS011;24220;48.168;14.024;2023-06-22T10:10:11;6.80;;;3.00;;
38435;SDS011;24220;48.168;14.024;2023-06-22T10:15:17;6.75;;;3.30;;
38435;SDS011;24220;48.168;14.024;2023-06-22T10:17:44;5.80;;;3.70;;
38435;SDS011;24220;48.168;14.024;2023-06-22T10:20:12;6.00;;;3.63;;
38435;SDS011;24220;48.168;14.024;2023-06-22T10:22:40;9.15;;;3.33;;
38435;SDS011;24220;48.168;14.024;2023-06-22T10:25:09;6.72;;;3.38;;
38435;SDS011;24220;48.168;14.024;2023-06-22T10:27:41;6.25;;;3.42;;
38435;SDS011;24220;48.168;14.024;2023-06-22T10:30:09;6.43;;;3.28;;
38435;SDS011;24220;48.168;14.024;2023-06-22T10:32:41;7.13;;;3.45;;
38435;SDS011;24220;48.168;14.024;2023-06-22T10:35:12;8.38;;;3.50;;
38435;SDS011;24220;48.168;14.024;2023-06-22T10:37:43;6.43;;;3.55;;
38435;SDS011;24220;48.168;14.024;2023-06-22T10:40:11;9.25;;;3.40;;
38435;SDS011;24220;48.168;14.024;2023-06-22T10:42:40;6.05;;;3.45;;
38435;SDS011;24220;48.168;14.024;2023-06-22T10:45:08;6.63;;;3.42;;
38435;SDS011;24220;48.168;14.024;2023-06-22T10:47:36;6.25;;;3.40;;
38435;SDS011;24220;48.168;14.024;2023-06-22T10:50:06;6.22;;;3.65;;
38435;SDS011;24220;48.168;14.024;2023-06-22T10:52:38;8.82;;;4.22;;
38435;SDS011;24220;48.168;14.024;2023-06-22T10:55:09;8.20;;;3.80;;
38435;SDS011;24220;48.168;14.024;2023-06-22T10:57:36;6.32;;;3.38;;
38435;SDS011;24220;48.168;14.024;2023-06-22T11:00:10;4.63;;;3.45;;
38435;SDS011;24220;48.168;14.024;2023-06-22T11:02:38;6.75;;;3.92;;
38435;SDS011;24220;48.168;14.024;2023-06-22T11:05:06;8.35;;;3.67;;
38435;SDS011;24220;48.168;14.024;2023-06-22T11:07:34;6.85;;;3.42;;
38435;SDS011;24220;48.168;14.024;2023-06-22T11:10:09;6.10;;;3.92;;
38435;SDS011;24220;48.168;14.024;2023-06-22T11:12:39;8.45;;;3.97;;
38435;SDS011;24220;48.168;14.024;2023-06-22T11:15:07;6.18;;;3.72;;
38435;SDS011;24220;48.168;14.024;2023-06-22T11:17:37;10.35;;;3.65;;
38435;SDS011;24220;48.168;14.024;2023-06-22T11:20:05;5.75;;;3.70;;
38435;SDS011;24220;48.168;14.024;2023-06-22T11:22:38;10.13;;;4.05;;
38435;SDS011;24220;48.168;14.024;2023-06-22T11:25:07;7.13;;;4.03;;
38435;SDS011;24220;48.168;14.024;2023-06-22T11:27:34;8.77;;;3.60;;
38435;SDS011;24220;48.168;14.024;2023-06-22T11:30:02;10.82;;;4.13;;
38435;SDS011;24220;48.168;14.024;2023-06-22T11:32:29;7.60;;;3.70;;
38435;SDS011;24220;48.168;14.024;2023-06-22T11:34:57;6.53;;;3.53;;
38435;SDS011;24220;48.168;14.024;2023-06-22T11:37:24;12.73;;;4.13;;
38435;SDS011;24220;48.168;14.024;2023-06-22T11:39:52;5.72;;;3.33;;
38435;SDS011;24220;48.168;14.024;2023-06-22T11:42:33;8.02;;;3.95;;
38435;SDS011;24220;48.168;14.024;2023-06-22T11:45:01;7.82;;;3.30;;
38435;SDS011;24220;48.168;14.024;2023-06-22T11:47:31;7.20;;;3.42;;
38435;SDS011;24220;48.168;14.024;2023-06-22T11:50:01;8.40;;;3.42;;
38435;SDS011;24220;48.168;14.024;2023-06-22T11:52:29;6.45;;;3.33;;
38435;SDS011;24220;48.168;14.024;2023-06-22T11:54:59;8.88;;;3.60;;
38435;SDS011;24220;48.168;14.024;2023-06-22T11:57:29;7.30;;;4.20;;
38435;SDS011;24220;48.168;14.024;2023-06-22T11:59:59;7.88;;;3.63;;
38435;SDS011;24220;48.168;14.024;2023-06-22T12:02:32;9.73;;;3.80;;
38435;SDS011;24220;48.168;14.024;2023-06-22T12:05:00;4.90;;;3.38;;
38435;SDS011;24220;48.168;14.024;2023-06-22T12:07:28;6.32;;;3.67;;
38435;SDS011;24220;48.168;14.024;2023-06-22T12:09:58;8.18;;;3.88;;
38435;SDS011;24220;48.168;14.024;2023-06-22T12:12:26;6.30;;;3.60;;
38435;SDS011;24220;48.168;14.024;2023-06-22T12:14:56;6.97;;;4.47;;
38435;SDS011;24220;48.168;14.024;2023-06-22T12:17:24;7.20;;;3.65;;
38435;SDS011;24220;48.168;14.024;2023-06-22T12:19:51;5.85;;;3.47;;
38435;SDS011;24220;48.168;14.024;2023-06-22T12:22:18;8.77;;;3.70;;
38435;SDS011;24220;48.168;14.024;2023-06-22T12:24:46;10.25;;;3.97;;
38435;SDS011;24220;48.168;14.024;2023-06-22T12:27:13;6.72;;;3.88;;
38435;SDS011;24220;48.168;14.024;2023-06-22T12:29:43;8.60;;;4.13;;
38435;SDS011;24220;48.168;14.024;2023-06-22T12:32:12;7.32;;;3.70;;
38435;SDS011;24220;48.168;14.024;2023-06-22T12:34:43;5.85;;;3.50;;
38435;SDS011;24220;48.168;14.024;2023-06-22T12:37:11;11.80;;;3.83;;
38435;SDS011;24220;48.168;14.024;2023-06-22T12:39:41;8.27;;;4.32;;
38435;SDS011;24220;48.168;14.024;2023-06-22T12:42:09;8.55;;;3.70;;
38435;SDS011;24220;48.168;14.024;2023-06-22T12:44:38;6.38;;;3.83;;
38435;SDS011;24220;48.168;14.024;2023-06-22T12:47:09;6.00;;;3.70;;
38435;SDS011;24220;48.168;14.024;2023-06-22T12:49:36;5.78;;;3.40;;
38435;SDS011;24220;48.168;14.024;2023-06-22T12:52:13;8.77;;;4.40;;
38435;SDS011;24220;48.168;14.024;2023-06-22T12:54:43;5.95;;;3.45;;
38435;SDS011;24220;48.168;14.024;2023-06-22T12:57:21;5.95;;;3.63;;
38435;SDS011;24220;48.168;14.024;2023-06-22T12:59:50;7.53;;;3.80;;
38435;SDS011;24220;48.168;14.024;2023-06-22T13:02:20;5.45;;;3.30;;
38435;SDS011;24220;48.168;14.024;2023-06-22T13:04:47;7.32;;;3.92;;
38435;SDS011;24220;48.168;14.024;2023-06-22T13:07:14;7.47;;;4.10;;
38435;SDS011;24220;48.168;14.024;2023-06-22T13:09:49;7.57;;;3.47;;
38435;SDS011;24220;48.168;14.024;2023-06-22T13:12:20;6.47;;;3.78;;
38435;SDS011;24220;48.168;14.024;2023-06-22T13:14:50;5.40;;;3.55;;
38435;SDS011;24220;48.168;14.024;2023-06-22T13:17:17;5.32;;;3.95;;
38435;SDS011;24220;48.168;14.024;2023-06-22T13:19:44;6.30;;;3.72;;
38435;SDS011;24220;48.168;14.024;2023-06-22T13:22:30;5.43;;;3.42;;
38435;SDS011;24220;48.168;14.024;2023-06-22T13:25:07;4.97;;;3.38;;
38435;SDS011;24220;48.168;14.024;2023-06-22T13:27:39;6.85;;;3.88;;
38435;SDS011;24220;48.168;14.024;2023-06-22T13:30:07;6.93;;;3.65;;
38435;SDS011;24220;48.168;14.024;2023-06-22T13:32:39;9.30;;;3.83;;
38435;SDS011;24220;48.168;14.024;2023-06-22T13:35:09;6.63;;;3.60;;
38435;SDS011;24220;48.168;14.024;2023-06-22T13:37:37;8.90;;;3.33;;
38435;SDS011;24220;48.168;14.024;2023-06-22T13:40:07;6.10;;;3.70;;
38435;SDS011;24220;48.168;14.024;2023-06-22T13:42:38;7.18;;;3.75;;
38435;SDS011;24220;48.168;14.024;2023-06-22T13:45:05;7.75;;;4.35;;
38435;SDS011;24220;48.168;14.024;2023-06-22T13:47:36;6.70;;;3.90;;
38435;SDS011;24220;48.168;14.024;2023-06-22T13:50:03;8.00;;;3.92;;
38435;SDS011;24220;48.168;14.024;2023-06-22T13:52:31;6.30;;;3.75;;
38435;SDS011;24220;48.168;14.024;2023-06-22T13:54:58;7.82;;;3.70;;
38435;SDS011;24220;48.168;14.024;2023-06-22T13:57:26;7.22;;;4.05;;
38435;SDS011;24220;48.168;14.024;2023-06-22T13:59:53;8.02;;;3.85;;
38435;SDS011;24220;48.168;14.024;2023-06-22T14:02:21;8.05;;;3.97;;
38435;SDS011;24220;48.168;14.024;2023-06-22T14:04:49;6.95;;;4.55;;
38435;SDS011;24220;48.168;14.024;2023-06-22T14:07:16;7.55;;;4.18;;
38435;SDS011;24220;48.168;14.024;2023-06-22T14:09:46;8.03;;;4.07;;
38435;SDS011;24220;48.168;14.024;2023-06-22T14:12:18;7.30;;;4.40;;
38435;SDS011;24220;48.168;14.024;2023-06-22T14:14:48;8.10;;;4.13;;
38435;SDS011;24220;48.168;14.024;2023-06-22T14:17:15;8.98;;;4.28;;
38435;SDS011;24220;48.168;14.024;2023-06-22T14:19:43;5.00;;;3.60;;
38435;SDS011;24220;48.168;14.024;2023-06-22T14:22:12;8.57;;;4.00;;
38435;SDS011;24220;48.168;14.024;2023-06-22T14:24:40;7.07;;;4.45;;
38435;SDS011;24220;48.168;14.024;2023-06-22T14:27:07;7.75;;;4.10;;
38435;SDS011;24220;48.168;14.024;2023-06-22T14:29:35;8.05;;;4.28;;
38435;SDS011;24220;48.168;14.024;2023-06-22T14:32:05;9.07;;;4.50;;
38435;SDS011;24220;48.168;14.024;2023-06-22T14:34:34;9.68;;;4.70;;
38435;SDS011;24220;48.168;14.024;2023-06-22T14:37:07;6.22;;;4.10;;
38435;SDS011;24220;48.168;14.024;2023-06-22T14:39:36;7.32;;;4.40;;
38435;SDS011;24220;48.168;14.024;2023-06-22T14:42:03;7.57;;;4.63;;
38435;SDS011;24220;48.168;14.024;2023-06-22T14:44:31;9.40;;;5.07;;
38435;SDS011;24220;48.168;14.024;2023-06-22T14:46:59;7.60;;;4.63;;
38435;SDS011;24220;48.168;14.024;2023-06-22T14:49:26;6.80;;;4.35;;
38435;SDS011;24220;48.168;14.024;2023-06-22T14:51:53;6.63;;;4.93;;
38435;SDS011;24220;48.168;14.024;2023-06-22T14:54:21;9.52;;;5.05;;
38435;SDS011;24220;48.168;14.024;2023-06-22T14:56:50;8.63;;;5.37;;
38435;SDS011;24220;48.168;14.024;2023-06-22T14:59:20;6.07;;;4.88;;
38435;SDS011;24220;48.168;14.024;2023-06-22T15:01:47;9.45;;;4.97;;